Time;durP1;ratioP1;P1;durP2;ratioP2;P2;SDS_P1;SDS_P2;PMS_P1;PMS_P2;Temp;Humidity;BMP_temperature;BMP_pressure;BME280_temperature;BME280_humidity;BME280_pressure;Samples;Min_cycle;Max_cycle;Signal;HPM_P1;HPM_P2
2022/11/14 00:00:36;;;;;;;;;41.25;31.00;;;;;11.37;60.57;100832.41;5068034;27;45485;-40
2022/11/14 00:03:04;;;;;;;;;35.50;28.25;;;;;11.38;60.44;100835.88;5066596;27;45553;-39
2022/11/14 00:05:29;;;;;;;;;40.00;31.50;;;;;11.37;60.60;100837.63;5069684;28;45549;-39
2022/11/14 00:07:55;;;;;;;;;33.50;27.75;;;;;11.36;60.31;100833.28;5072930;28;67402;-40
2022/11/14 00:10:20;;;;;;;;;33.50;28.75;;;;;11.36;60.28;100833.28;5072141;28;45303;-40
2022/11/14 00:12:46;;;;;;;;;35.00;25.50;;;;;11.34;60.27;100829.84;5075066;27;45488;-40
2022/11/14 00:15:12;;;;;;;;;35.25;30.50;;;;;11.33;60.24;100828.16;5077508;27;45481;-39
2022/11/14 00:17:38;;;;;;;;;37.00;30.75;;;;;11.29;60.52;100825.66;5071410;27;45436;-39
2022/11/14 00:20:05;;;;;;;;;33.75;27.50;;;;;11.25;60.68;100821.41;5078886;27;45355;-39
2022/11/14 00:22:31;;;;;;;;;29.50;27.25;;;;;11.25;60.69;100819.66;5071206;27;45327;-39
2022/11/14 00:24:56;;;;;;;;;36.75;28.00;;;;;11.24;60.75;100812.69;5074240;27;70626;-39
2022/11/14 00:27:21;;;;;;;;;37.00;27.00;;;;;11.26;60.55;100815.25;5077609;27;63803;-39
2022/11/14 00:29:47;;;;;;;;;38.75;28.00;;;;;11.27;60.50;100803.88;5064504;28;45458;-40
2022/11/14 00:32:12;;;;;;;;;27.00;25.00;;;;;11.30;60.64;100809.91;5065290;28;53517;-39
2022/11/14 00:34:37;;;;;;;;;27.25;25.00;;;;;11.32;60.65;100805.47;5078088;27;69715;-40
2022/11/14 00:37:03;;;;;;;;;32.75;26.00;;;;;11.34;60.54;100808.06;5075789;27;45168;-39
2022/11/14 00:39:28;;;;;;;;;32.75;28.00;;;;;11.37;60.75;100810.59;5062588;27;45224;-40
2022/11/14 00:41:54;;;;;;;;;32.75;24.25;;;;;11.38;60.47;100799.19;5069880;28;45181;-40
2022/11/14 00:44:19;;;;;;;;;31.00;26.00;;;;;11.38;60.68;100796.56;5066079;28;66142;-39
2022/11/14 00:46:44;;;;;;;;;30.75;26.25;;;;;11.38;60.66;100801.81;5072601;27;46036;-40
2022/11/14 00:49:10;;;;;;;;;32.00;26.00;;;;;11.40;60.52;100792.13;5076005;28;45444;-39
2022/11/14 00:51:35;;;;;;;;;35.75;24.50;;;;;11.43;60.41;100793.81;5066227;28;63710;-40
2022/11/14 00:54:01;;;;;;;;;29.75;24.00;;;;;11.42;60.59;100795.59;5065779;28;45634;-40
2022/11/14 00:56:27;;;;;;;;;36.25;27.50;;;;;11.42;60.57;100794.72;5071684;28;47356;-39
2022/11/14 00:58:52;;;;;;;;;38.75;31.25;;;;;11.42;60.36;100786.84;5078777;27;48613;-40
2022/11/14 01:01:18;;;;;;;;;31.50;25.25;;;;;11.42;60.53;100786.84;5069822;27;45342;-41
2022/11/14 01:03:47;;;;;;;;;31.25;26.50;;;;;11.44;60.37;100788.53;5064422;27;45445;-40
2022/11/14 01:06:14;;;;;;;;;37.25;26.50;;;;;11.40;60.48;100787.78;5063797;27;46568;-40
2022/11/14 01:08:40;;;;;;;;;32.00;25.00;;;;;11.33;60.26;100785.34;5072112;28;46257;-40
2022/11/14 01:11:11;;;;;;;;;26.00;23.50;;;;;11.23;59.95;100783.94;5065707;27;45490;-40
2022/11/14 01:13:37;;;;;;;;;28.75;24.75;;;;;11.16;60.56;100784.09;5075681;28;46839;-39
2022/11/14 01:16:02;;;;;;;;;29.25;23.75;;;;;11.17;60.58;100783.22;5065469;27;45628;-39
2022/11/14 01:18:28;;;;;;;;;30.50;24.50;;;;;11.16;60.34;100778.84;5072213;28;45385;-39
2022/11/14 01:20:53;;;;;;;;;31.50;27.25;;;;;11.17;60.36;100774.47;5074340;28;45302;-39
2022/11/14 01:23:18;;;;;;;;;33.50;26.00;;;;;11.17;60.26;100774.47;5068684;27;70614;-39
2022/11/14 01:25:44;;;;;;;;;32.00;28.75;;;;;11.20;60.30;100771.75;5065517;28;46120;-39
2022/11/14 01:28:13;;;;;;;;;33.50;27.25;;;;;11.19;60.28;100764.78;5072146;27;47008;-39
2022/11/14 01:30:39;;;;;;;;;32.75;28.75;;;;;11.22;60.50;100767.34;5063693;28;45462;-39
2022/11/14 01:33:05;;;;;;;;;27.25;23.00;;;;;11.25;60.04;100767.25;5066681;27;45639;-39
2022/11/14 01:35:32;;;;;;;;;33.25;24.50;;;;;11.26;60.04;100762.88;5067950;28;45449;-40
2022/11/14 01:37:58;;;;;;;;;29.75;24.00;;;;;11.25;60.10;100761.16;5070162;28;45406;-40
2022/11/14 01:40:23;;;;;;;;;30.75;22.25;;;;;11.24;60.25;100751.56;5064536;27;68179;-39
2022/11/14 01:43:16;;;;;;;;;33.00;27.00;;;;;11.22;60.21;100751.63;5068083;28;62068;-39
2022/11/14 01:46:04;;;;;;;;;34.00;26.25;;;;;11.18;60.21;100747.38;5073912;27;46207;-39
2022/11/14 01:48:44;;;;;;;;;26.50;24.50;;;;;11.11;60.52;100745.84;5073536;27;46611;-39
2022/11/14 01:51:15;;;;;;;;;33.50;26.00;;;;;11.04;60.69;100734.69;5067091;28;45297;-39
2022/11/14 01:53:42;;;;;;;;;31.50;26.25;;;;;11.05;60.52;100743.38;5077143;27;45256;-40
2022/11/14 01:56:09;;;;;;;;;37.75;31.25;;;;;11.05;60.42;100731.19;5065583;27;46753;-39
2022/11/14 01:58:36;;;;;;;;;36.75;27.00;;;;;11.07;60.61;100741.63;5074850;27;45939;-39
2022/11/14 02:01:02;;;;;;;;;37.75;24.25;;;;;11.05;60.85;100738.16;5075085;28;45339;-39
2022/11/14 02:03:27;;;;;;;;;29.50;26.50;;;;;11.05;60.77;100733.78;5082415;27;45345;-40
2022/11/14 02:05:53;;;;;;;;;32.00;25.50;;;;;10.98;60.66;100733.09;5067548;27;68856;-40
2022/11/14 02:08:19;;;;;;;;;33.50;25.75;;;;;10.98;60.87;100737.50;5076876;28;63827;-39
2022/11/14 02:10:45;;;;;;;;;34.25;25.00;;;;;10.98;60.60;100746.19;5075067;28;45640;-39
2022/11/14 02:13:10;;;;;;;;;39.00;26.00;;;;;10.91;60.68;100731.56;5068302;28;64689;-40
2022/11/14 02:15:36;;;;;;;;;34.00;28.75;;;;;10.85;60.73;100731.72;5063828;28;71180;-40
2022/11/14 02:18:01;;;;;;;;;33.00;30.00;;;;;10.80;61.00;100729.25;5066706;27;64567;-40
2022/11/14 02:20:31;;;;;;;;;46.50;31.75;;;;;10.81;60.91;100724.88;5067900;27;45414;-40
2022/11/14 02:22:56;;;;;;;;;32.00;23.75;;;;;10.85;61.23;100729.09;5069110;28;45674;-40
2022/11/14 02:25:22;;;;;;;;;33.75;28.00;;;;;10.86;60.97;100728.22;5066473;27;64179;-40
2022/11/14 02:27:48;;;;;;;;;40.00;32.00;;;;;10.89;61.19;100728.13;5085931;27;45421;-40
2022/11/14 02:30:17;;;;;;;;;44.75;33.25;;;;;10.89;61.11;100712.44;5071765;27;45432;-40
2022/11/14 02:32:43;;;;;;;;;47.50;33.25;;;;;10.91;60.91;100726.34;5072369;28;45660;-40
2022/11/14 02:35:08;;;;;;;;;39.25;32.50;;;;;10.93;61.55;100715.81;5068638;28;45308;-40
2022/11/14 02:37:34;;;;;;;;;32.75;30.25;;;;;10.98;61.27;100716.53;5070349;27;45670;-40
2022/11/14 02:39:59;;;;;;;;;38.25;30.25;;;;;11.01;61.22;100709.47;5077180;27;45406;-40
2022/11/14 02:42:24;;;;;;;;;35.75;31.75;;;;;11.05;61.17;100702.38;5073247;28;70480;-40
2022/11/14 02:44:50;;;;;;;;;37.50;27.75;;;;;11.07;60.98;100705.78;5070658;27;69464;-40
2022/11/14 02:47:15;;;;;;;;;37.00;28.00;;;;;11.04;60.72;100705.03;5076509;27;50074;-39
2022/11/14 02:49:40;;;;;;;;;36.25;28.75;;;;;11.04;60.78;100710.28;5085398;27;45310;-40
2022/11/14 02:52:06;;;;;;;;;36.25;31.75;;;;;11.06;60.77;100714.53;5074725;28;63806;-39
2022/11/14 02:54:31;;;;;;;;;32.75;28.50;;;;;11.07;60.83;100705.78;5076666;28;70766;-40
2022/11/14 02:56:56;;;;;;;;;33.75;27.00;;;;;11.08;60.95;100701.41;5070871;27;45567;-40
2022/11/14 02:59:22;;;;;;;;;31.50;25.00;;;;;11.08;60.96;100688.31;5077435;27;58728;-40
2022/11/14 03:01:47;;;;;;;;;29.75;25.75;;;;;11.10;61.17;100689.13;5073879;27;72368;-40
2022/11/14 03:04:12;;;;;;;;;28.00;22.00;;;;;11.12;60.96;100689.94;5066851;27;45455;-39
2022/11/14 03:06:37;;;;;;;;;33.00;24.00;;;;;11.12;60.82;100687.31;5073731;27;64716;-39
2022/11/14 03:09:03;;;;;;;;;43.00;30.25;;;;;11.09;60.43;100683.03;5077001;27;52815;-39
2022/11/14 03:11:28;;;;;;;;;31.75;28.00;;;;;11.06;60.67;100677.03;5077240;28;51591;-40
2022/11/14 03:13:54;;;;;;;;;30.50;23.50;;;;;11.03;60.74;100672.75;5078102;27;48364;-39
2022/11/14 03:16:19;;;;;;;;;31.50;29.00;;;;;11.01;60.53;100682.38;5072517;27;45441;-40
2022/11/14 03:18:44;;;;;;;;;27.75;22.50;;;;;10.98;60.56;100677.28;5079527;27;55140;-40
2022/11/14 03:21:16;;;;;;;;;29.50;25.50;;;;;10.96;60.83;100677.31;5065639;28;73074;-39
2022/11/14 03:23:41;;;;;;;;;29.75;23.25;;;;;10.98;60.97;100677.28;5084431;27;47872;-40
2022/11/14 03:26:08;;;;;;;;;29.25;24.50;;;;;11.00;60.92;100672.84;5080787;27;45215;-40
2022/11/14 03:28:34;;;;;;;;;29.50;22.75;;;;;11.01;60.76;100677.16;5079878;27;45491;-40
2022/11/14 03:30:59;;;;;;;;;28.50;22.00;;;;;11.01;60.75;100671.91;5074467;27;45639;-40
2022/11/14 03:33:24;;;;;;;;;32.25;24.00;;;;;10.99;60.63;100669.34;5077113;27;65101;-39
2022/11/14 03:35:50;;;;;;;;;23.25;22.00;;;;;10.99;60.90;100671.97;5070728;27;45215;-39
2022/11/14 03:38:16;;;;;;;;;28.00;23.50;;;;;11.00;60.95;100678.94;5075503;27;45358;-40
2022/11/14 03:40:42;;;;;;;;;26.25;20.25;;;;;11.00;60.66;100681.53;5071177;28;45593;-39
2022/11/14 03:43:07;;;;;;;;;31.25;26.25;;;;;10.98;60.74;100680.75;5072940;28;70535;-40
2022/11/14 03:45:32;;;;;;;;;30.75;23.00;;;;;10.99;60.60;100684.19;5065767;27;55997;-40
2022/11/14 03:47:57;;;;;;;;;26.25;21.25;;;;;10.98;60.88;100682.50;5079336;27;56787;-40
2022/11/14 03:50:23;;;;;;;;;23.50;20.75;;;;;10.99;60.60;100678.97;5066928;27;60878;-40
2022/11/14 03:52:49;;;;;;;;;32.25;23.75;;;;;10.98;61.10;100667.66;5099556;27;64027;-40
2022/11/14 03:55:14;;;;;;;;;31.75;22.75;;;;;10.99;60.78;100669.34;5076643;27;45447;-39
2022/11/14 03:57:39;;;;;;;;;23.25;22.00;;;;;11.05;60.85;100667.44;5070980;28;57663;-40
2022/11/14 04:00:05;;;;;;;;;23.50;20.00;;;;;11.09;60.65;100685.66;5073474;27;67527;-40
2022/11/14 04:02:30;;;;;;;;;23.00;20.75;;;;;11.10;61.04;100669.06;5075555;27;45519;-40
2022/11/14 04:04:56;;;;;;;;;31.00;23.25;;;;;11.12;61.28;100667.22;5067847;28;70560;-40
2022/11/14 04:07:21;;;;;;;;;22.75;16.50;;;;;11.10;60.52;100670.78;5072569;28;66541;-39
2022/11/14 04:09:47;;;;;;;;;25.75;22.00;;;;;10.98;60.58;100667.66;5082811;27;55348;-40
2022/11/14 04:12:12;;;;;;;;;25.25;18.00;;;;;10.89;60.87;100660.06;5069044;27;47270;-40
2022/11/14 04:14:37;;;;;;;;;27.25;20.50;;;;;10.88;60.96;100655.72;5071766;27;45524;-39
2022/11/14 04:17:03;;;;;;;;;21.00;17.25;;;;;10.86;61.02;100662.78;5071164;27;45422;-40
2022/11/14 04:19:28;;;;;;;;;22.50;19.50;;;;;10.85;61.02;100661.03;5075045;27;73034;-40
2022/11/14 04:21:53;;;;;;;;;27.50;22.50;;;;;10.87;60.95;100668.84;5073203;27;69515;-39
2022/11/14 04:24:19;;;;;;;;;30.25;19.50;;;;;10.89;61.26;100659.19;5069739;27;60880;-40
2022/11/14 04:26:44;;;;;;;;;26.00;17.75;;;;;10.91;61.21;100649.56;5063099;27;45328;-40
2022/11/14 04:29:09;;;;;;;;;30.50;20.75;;;;;10.93;61.23;100653.81;5073874;27;57591;-39
2022/11/14 04:31:35;;;;;;;;;21.75;19.50;;;;;10.95;61.50;100661.63;5075633;27;73059;-39
2022/11/14 04:34:00;;;;;;;;;23.25;18.00;;;;;10.94;61.73;100662.53;5072833;27;73155;-40
2022/11/14 04:36:25;;;;;;;;;24.50;17.75;;;;;10.94;61.61;100657.28;5061013;27;60067;-39
2022/11/14 04:38:51;;;;;;;;;27.75;22.00;;;;;10.97;61.46;100662.44;5075673;27;45489;-40
2022/11/14 04:41:16;;;;;;;;;21.75;19.50;;;;;10.97;61.55;100668.53;5074400;27;64957;-39
2022/11/14 04:43:41;;;;;;;;;23.25;18.00;;;;;10.97;61.49;100665.06;5073965;28;66998;-44
2022/11/14 04:46:07;;;;;;;;;21.00;16.00;;;;;10.97;61.39;100660.69;5068404;27;45462;-40
2022/11/14 04:48:32;;;;;;;;;29.25;20.00;;;;;10.98;61.17;100661.56;5076332;28;52165;-40
2022/11/14 04:50:57;;;;;;;;;20.50;18.50;;;;;11.01;61.62;100661.44;5047569;28;47152;-39
2022/11/14 04:53:23;;;;;;;;;22.00;19.25;;;;;11.02;61.68;100656.16;5067920;27;47692;-39
2022/11/14 04:55:48;;;;;;;;;27.00;20.75;;;;;11.05;61.50;100651.72;5066578;27;46309;-39
2022/11/14 04:58:14;;;;;;;;;22.25;21.75;;;;;11.07;61.26;100648.19;5062428;28;45351;-39
2022/11/14 05:00:39;;;;;;;;;30.25;22.00;;;;;11.09;61.37;100643.75;5062291;28;46116;-39
2022/11/14 05:03:04;;;;;;;;;22.50;18.75;;;;;11.12;61.45;100642.78;5059192;27;62149;-40
2022/11/14 05:05:31;;;;;;;;;21.00;18.25;;;;;11.12;61.25;100648.91;5065475;28;46533;-39
2022/11/14 05:07:56;;;;;;;;;23.75;18.75;;;;;11.09;61.26;100640.28;5074237;27;45445;-39
2022/11/14 05:10:22;;;;;;;;;27.75;18.25;;;;;11.08;61.43;100643.78;5046668;28;45392;-39
2022/11/14 05:12:47;;;;;;;;;19.25;15.75;;;;;11.07;61.31;100629.84;5069648;28;45418;-38
2022/11/14 05:15:12;;;;;;;;;22.75;19.25;;;;;11.10;61.31;100623.66;5074673;27;45307;-39
2022/11/14 05:17:38;;;;;;;;;32.75;22.50;;;;;11.07;61.53;100629.84;5074481;28;45466;-39
2022/11/14 05:20:03;;;;;;;;;23.25;20.50;;;;;11.09;61.45;100624.56;5073999;28;72629;-46
2022/11/14 05:22:29;;;;;;;;;22.50;21.00;;;;;11.11;61.94;100620.13;5072230;27;45283;-40
2022/11/14 05:24:54;;;;;;;;;26.75;21.00;;;;;11.10;61.41;100616.66;5075381;27;45497;-40
2022/11/14 05:27:19;;;;;;;;;26.50;20.75;;;;;11.14;61.75;100617.44;5072604;27;52904;-39
2022/11/14 05:29:45;;;;;;;;;30.50;22.75;;;;;11.15;61.63;100621.75;5047159;28;75434;-39
2022/11/14 05:32:10;;;;;;;;;30.75;23.00;;;;;11.19;61.36;100621.63;5074417;27;45353;-40
2022/11/14 05:34:35;;;;;;;;;23.75;22.25;;;;;11.19;61.40;100620.72;5068204;28;45438;-40
2022/11/14 05:37:02;;;;;;;;;26.00;22.25;;;;;11.14;61.43;100609.56;5070909;27;56216;-40
2022/11/14 05:39:28;;;;;;;;;30.75;25.75;;;;;11.10;61.58;100616.66;5069843;27;45447;-40
2022/11/14 05:41:53;;;;;;;;;25.00;17.00;;;;;11.05;61.73;100613.34;5074536;27;45463;-39
2022/11/14 05:44:18;;;;;;;;;32.00;22.75;;;;;11.04;61.93;100606.38;5072719;27;62603;-39
2022/11/14 05:46:44;;;;;;;;;27.75;22.75;;;;;11.05;62.06;100602.84;5067578;27;63711;-39
2022/11/14 05:49:09;;;;;;;;;31.75;21.75;;;;;11.06;61.46;100601.09;5064194;27;72584;-39
2022/11/14 05:51:34;;;;;;;;;26.25;21.00;;;;;10.97;61.65;100594.38;5066202;27;72861;-39
2022/11/14 05:54:00;;;;;;;;;29.25;21.75;;;;;10.89;61.80;100593.75;5064722;27;45648;-39
2022/11/14 05:56:25;;;;;;;;;33.25;22.50;;;;;10.82;61.82;100580.84;5076432;27;55113;-39
2022/11/14 05:58:50;;;;;;;;;27.75;20.50;;;;;10.79;62.16;100580.94;5073754;27;46167;-38
2022/11/14 06:01:18;;;;;;;;;29.75;21.75;;;;;10.81;62.21;100584.34;5068918;27;61411;-38
2022/11/14 06:03:45;;;;;;;;;28.75;25.75;;;;;10.79;61.87;100588.78;5069765;27;45946;-39
2022/11/14 06:06:14;;;;;;;;;27.25;18.75;;;;;10.71;62.47;100590.81;5051935;28;45550;-38
2022/11/14 06:08:40;;;;;;;;;31.25;23.75;;;;;10.68;62.35;100579.53;5076362;27;45406;-40
2022/11/14 06:11:14;;;;;;;;;28.25;21.50;;;;;10.62;62.71;100576.22;5074725;28;46941;-40
2022/11/14 06:13:39;;;;;;;;;30.25;21.00;;;;;10.66;62.55;100576.09;5064627;27;45430;-39
2022/11/14 06:16:08;;;;;;;;;33.25;22.00;;;;;10.70;62.62;100580.38;5066830;28;45541;-40
2022/11/14 06:18:33;;;;;;;;;30.25;22.00;;;;;10.72;62.60;100576.78;5066768;27;45488;-40
2022/11/14 06:21:14;;;;;;;;;23.50;21.25;;;;;10.77;62.87;100579.28;5070942;27;45225;-39
2022/11/14 06:23:39;;;;;;;;;25.00;20.75;;;;;10.81;62.70;100573.88;5084098;27;45274;-40
2022/11/14 06:26:07;;;;;;;;;26.50;23.00;;;;;10.87;62.47;100574.59;5063444;28;45589;-40
2022/11/14 06:28:32;;;;;;;;;26.50;21.75;;;;;10.92;62.74;100580.56;5064297;27;46372;-40
2022/11/14 06:30:59;;;;;;;;;32.00;23.75;;;;;10.93;62.86;100575.28;5050504;27;45477;-40
2022/11/14 06:33:26;;;;;;;;;27.50;22.00;;;;;10.91;62.72;100587.56;5067928;28;45608;-41
2022/11/14 06:35:59;;;;;;;;;27.50;22.25;;;;;10.90;62.45;100574.53;5070822;27;45437;-40
2022/11/14 06:38:25;;;;;;;;;30.50;22.25;;;;;10.86;62.78;100580.75;5078352;28;46424;-40
2022/11/14 06:40:50;;;;;;;;;30.00;24.50;;;;;10.87;62.35;100582.47;5075968;27;45483;-41
2022/11/14 06:43:15;;;;;;;;;24.00;20.50;;;;;10.86;62.56;100583.38;5069640;27;64196;-40
2022/11/14 06:45:41;;;;;;;;;28.25;21.25;;;;;10.83;62.74;100579.94;5075791;27;71204;-40
2022/11/14 06:48:06;;;;;;;;;28.00;24.00;;;;;10.89;62.92;100588.50;5075820;27;47737;-40
2022/11/14 06:50:31;;;;;;;;;34.00;29.50;;;;;10.94;62.90;100589.22;5067399;27;45423;-40
2022/11/14 06:52:57;;;;;;;;;20.75;16.50;;;;;10.97;62.83;100589.13;5070849;27;59658;-40
2022/11/14 06:55:23;;;;;;;;;25.25;20.75;;;;;10.99;62.79;100590.78;5072618;28;45506;-40
2022/11/14 06:57:54;;;;;;;;;25.25;20.75;;;;;11.00;62.59;100596.91;5068278;28;45588;-40
2022/11/14 07:00:21;;;;;;;;;25.75;18.75;;;;;11.02;62.50;100601.19;5065120;27;52802;-40
2022/11/14 07:02:47;;;;;;;;;20.75;19.00;;;;;11.05;62.56;100599.34;5068716;28;45342;-40
2022/11/14 07:05:12;;;;;;;;;22.00;18.50;;;;;11.07;62.73;100605.44;5070432;28;45437;-39
2022/11/14 07:07:38;;;;;;;;;21.00;16.75;;;;;11.11;62.84;100607.88;5067724;28;46402;-38
2022/11/14 07:10:03;;;;;;;;;24.25;18.50;;;;;11.13;62.60;100613.09;5079913;27;64957;-38
2022/11/14 07:12:29;;;;;;;;;22.25;19.00;;;;;11.17;62.54;100619.94;5081644;27;45425;-39
2022/11/14 07:14:54;;;;;;;;;27.00;19.00;;;;;11.19;62.56;100615.50;5077653;27;45632;-39
2022/11/14 07:17:19;;;;;;;;;31.50;20.75;;;;;11.17;62.26;100620.81;5077234;27;65712;-38
2022/11/14 07:19:45;;;;;;;;;26.25;19.75;;;;;11.15;62.01;100619.97;5071819;27;45462;-39
2022/11/14 07:22:10;;;;;;;;;22.75;18.25;;;;;11.14;62.40;100622.66;5074888;27;45436;-38
2022/11/14 07:24:36;;;;;;;;;20.75;16.50;;;;;11.13;62.12;100616.56;5080061;27;45653;-39
2022/11/14 07:27:01;;;;;;;;;51.00;26.75;;;;;11.11;61.95;100613.13;5068043;28;45344;-39
2022/11/14 07:29:27;;;;;;;;;21.25;17.00;;;;;11.09;62.42;100625.41;5070465;27;46929;-39
2022/11/14 07:31:52;;;;;;;;;26.25;17.25;;;;;11.07;62.20;100614.13;5080957;28;45484;-38
2022/11/14 07:34:17;;;;;;;;;20.00;16.00;;;;;11.04;62.16;100616.00;5079868;27;70349;-38
2022/11/14 07:36:43;;;;;;;;;18.75;15.00;;;;;11.03;62.33;100625.63;5061541;28;46032;-38
2022/11/14 07:39:08;;;;;;;;;16.00;13.50;;;;;11.02;62.27;100634.38;5071783;28;45319;-38
2022/11/14 07:41:34;;;;;;;;;17.75;13.75;;;;;11.04;62.00;100623.84;5077601;27;45359;-39
2022/11/14 07:43:59;;;;;;;;;25.25;18.25;;;;;11.06;62.04;100632.50;5077877;28;59618;-39
2022/11/14 07:46:24;;;;;;;;;19.25;15.00;;;;;11.07;62.11;100631.63;5080274;27;62956;-39
2022/11/14 07:48:50;;;;;;;;;25.00;19.00;;;;;11.08;62.11;100622.84;5073515;27;45292;-40
2022/11/14 07:51:17;;;;;;;;;21.25;19.00;;;;;11.09;62.26;100620.19;5078231;27;66758;-39
2022/11/14 07:53:43;;;;;;;;;28.75;21.25;;;;;11.10;61.81;100615.78;5077476;27;45361;-39
2022/11/14 07:56:09;;;;;;;;;23.25;18.75;;;;;11.12;62.10;100613.97;5069979;27;45494;-39
2022/11/14 07:58:36;;;;;;;;;54.50;32.75;;;;;11.11;61.71;100615.75;5075264;27;45462;-39
2022/11/14 08:01:01;;;;;;;;;25.25;18.00;;;;;11.12;61.78;100621.84;5066339;27;45445;-39
2022/11/14 08:03:27;;;;;;;;;22.50;20.25;;;;;11.13;61.87;100613.09;5076421;27;45671;-39
2022/11/14 08:06:04;;;;;;;;;23.50;18.25;;;;;11.15;61.93;100621.75;5062492;28;45418;-39
2022/11/14 08:08:29;;;;;;;;;22.75;19.75;;;;;11.16;61.67;100619.09;5074060;27;45303;-39
2022/11/14 08:10:56;;;;;;;;;25.75;20.50;;;;;11.17;61.88;100618.19;5073347;27;64683;-39
2022/11/14 08:13:23;;;;;;;;;23.50;22.75;;;;;11.17;62.02;100612.94;5090567;27;45495;-39
2022/11/14 08:15:48;;;;;;;;;29.00;22.00;;;;;11.20;61.79;100622.47;5077496;27;46300;-39
2022/11/14 08:18:13;;;;;;;;;26.50;24.25;;;;;11.21;61.69;100616.31;5065645;28;70823;-39
2022/11/14 08:20:38;;;;;;;;;31.25;25.75;;;;;11.21;61.47;100617.19;5076477;28;59942;-39
2022/11/14 08:23:05;;;;;;;;;34.50;27.50;;;;;11.13;61.39;100616.56;5068947;27;70982;-40
2022/11/14 08:25:31;;;;;;;;;29.00;25.75;;;;;11.07;61.44;100613.28;5069421;27;46169;-40
2022/11/14 08:27:56;;;;;;;;;36.00;30.25;;;;;11.06;61.73;100614.19;5073986;27;45336;-40
2022/11/14 08:30:22;;;;;;;;;28.25;21.25;;;;;11.07;61.94;100623.75;5071781;27;57644;-39
2022/11/14 08:32:47;;;;;;;;;33.50;24.75;;;;;11.11;61.86;100612.28;5080400;27;45297;-39
2022/11/14 08:35:13;;;;;;;;;33.00;24.25;;;;;11.09;61.74;100611.47;5075769;28;59902;-39
2022/11/14 08:37:38;;;;;;;;;26.00;24.00;;;;;11.09;61.93;100619.34;5078596;27;45444;-40
2022/11/14 08:40:05;;;;;;;;;37.50;28.25;;;;;11.10;62.01;100616.66;5079719;27;45225;-40
2022/11/14 08:42:30;;;;;;;;;32.75;26.00;;;;;11.12;61.98;100613.97;5073532;27;45463;-41
2022/11/14 08:44:55;;;;;;;;;39.00;26.50;;;;;11.11;61.63;100617.50;5075356;27;46069;-41
2022/11/14 08:47:21;;;;;;;;;27.50;22.50;;;;;11.10;61.71;100608.81;5073011;27;56143;-40
2022/11/14 08:49:46;;;;;;;;;32.00;24.50;;;;;11.08;61.64;100622.84;5077126;28;45314;-40
2022/11/14 08:52:11;;;;;;;;;28.25;21.50;;;;;11.07;61.65;100621.16;5067174;27;65489;-40
2022/11/14 08:54:37;;;;;;;;;48.25;36.00;;;;;11.09;62.02;100628.03;5068188;27;71425;-40
2022/11/14 08:57:03;;;;;;;;;38.25;27.75;;;;;11.12;61.84;100620.09;5073968;28;45443;-39
2022/11/14 08:59:29;;;;;;;;;41.00;32.50;;;;;11.16;61.87;100629.56;5078953;27;45321;-40
2022/11/14 09:01:55;;;;;;;;;27.00;23.00;;;;;11.21;61.90;100622.41;5090012;27;45354;-40
2022/11/14 09:04:20;;;;;;;;;28.25;21.25;;;;;11.18;61.53;100619.88;5072450;28;46258;-40
2022/11/14 09:06:45;;;;;;;;;29.50;24.00;;;;;11.10;61.79;100619.28;5087651;27;45327;-40
2022/11/14 09:09:11;;;;;;;;;28.25;22.50;;;;;11.07;61.92;100627.22;5072675;28;45468;-39
2022/11/14 09:11:36;;;;;;;;;26.50;22.00;;;;;11.01;61.68;100620.44;5079453;27;68051;-39
2022/11/14 09:14:02;;;;;;;;;27.75;23.50;;;;;11.06;61.50;100627.28;5068291;27;64187;-40
2022/11/14 09:16:28;;;;;;;;;27.25;22.25;;;;;11.08;61.69;100633.31;5079776;27;53101;-40
2022/11/14 09:18:53;;;;;;;;;25.25;22.25;;;;;11.08;61.91;100628.94;5070764;27;46021;-40
2022/11/14 09:21:19;;;;;;;;;28.25;24.00;;;;;11.10;61.80;100626.25;5065988;27;49196;-40
2022/11/14 09:23:46;;;;;;;;;27.25;22.25;;;;;11.07;61.67;100627.22;5066450;27;47130;-40
2022/11/14 09:26:11;;;;;;;;;35.00;27.00;;;;;11.10;61.98;100626.25;5067453;28;45510;-40
2022/11/14 09:28:36;;;;;;;;;31.50;24.75;;;;;11.07;61.89;100622.00;5076716;27;45788;-39
2022/11/14 09:31:04;;;;;;;;;32.00;20.00;;;;;11.10;61.67;100629.75;5076015;28;45449;-40
2022/11/14 09:33:29;;;;;;;;;23.25;22.75;;;;;11.15;61.75;100619.97;5072749;27;45445;-38
2022/11/14 09:35:58;;;;;;;;;29.25;21.00;;;;;11.22;61.93;100623.25;5072067;27;45543;-38
2022/11/14 09:38:24;;;;;;;;;21.00;20.50;;;;;11.28;61.85;100622.22;5074238;27;45577;-39
2022/11/14 09:41:04;;;;;;;;;34.25;32.50;;;;;11.27;61.75;100608.25;5078525;27;66398;-38
2022/11/14 09:44:07;;;;;;;;;40.00;32.25;;;;;11.33;61.57;100618.56;5078629;28;45993;-38
2022/11/14 09:46:39;;;;;;;;;42.25;29.00;;;;;11.37;61.66;100614.94;5067471;28;45993;-38
2022/11/14 09:49:14;;;;;;;;;24.50;21.75;;;;;11.39;61.58;100612.25;5067699;27;45237;-38
2022/11/14 09:51:47;;;;;;;;;24.75;20.50;;;;;11.44;61.29;100614.72;5061561;28;45627;-38
2022/11/14 09:54:19;;;;;;;;;27.00;23.25;;;;;11.49;61.82;100602.31;5067837;28;45565;-39
2022/11/14 09:56:44;;;;;;;;;22.50;20.50;;;;;11.53;61.93;100601.34;5072480;28;45497;-38
2022/11/14 09:59:10;;;;;;;;;25.75;21.75;;;;;11.61;61.29;100606.31;5092136;27;67450;-38
2022/11/14 10:01:48;;;;;;;;;26.00;22.75;;;;;11.67;61.45;100606.97;5078550;27;45370;-39
2022/11/14 10:04:19;;;;;;;;;21.25;19.00;;;;;11.72;61.08;100604.16;5079466;27;45274;-39
2022/11/14 10:07:13;;;;;;;;;22.50;19.25;;;;;11.77;61.26;100603.13;5074824;28;45349;-39
2022/11/14 10:09:59;;;;;;;;;27.00;18.00;;;;;11.82;60.90;100608.19;5071404;28;45458;-39
2022/11/14 10:12:30;;;;;;;;;23.50;19.25;;;;;11.85;60.78;100610.72;5065039;27;45363;-39
2022/11/14 10:15:19;;;;;;;;;24.00;20.00;;;;;11.90;60.96;100626.31;5073609;28;47457;-39
2022/11/14 10:17:56;;;;;;;;;26.75;21.50;;;;;11.92;60.67;100620.13;5050684;28;46048;-40
2022/11/14 10:20:41;;;;;;;;;20.75;17.25;;;;;11.99;60.54;100619.91;5077248;27;45313;-45
2022/11/14 10:23:24;;;;;;;;;22.00;18.75;;;;;12.04;60.39;100612.72;5068438;27;45248;-39
2022/11/14 10:26:13;;;;;;;;;24.75;20.50;;;;;12.11;60.30;100607.22;5070166;27;46104;-40
2022/11/14 10:28:46;;;;;;;;;115.50;91.75;;;;;12.13;60.18;100605.41;5076036;28;45296;-40
2022/11/14 10:31:28;;;;;;;;;29.50;24.00;;;;;12.14;60.36;100604.47;5072299;27;45396;-39
2022/11/14 10:34:37;;;;;;;;;46.75;37.25;;;;;12.20;60.09;100595.56;5073349;27;45976;-39
2022/11/14 10:37:14;;;;;;;;;25.25;23.25;;;;;12.25;60.18;100592.75;5006517;28;46567;-40
2022/11/14 10:39:49;;;;;;;;;24.50;21.25;;;;;12.24;59.74;100591.06;4999609;28;45372;-40
2022/11/14 10:42:36;;;;;;;;;23.00;18.25;;;;;12.26;60.02;100586.59;5050345;28;45401;-39
2022/11/14 10:45:06;;;;;;;;;25.75;23.25;;;;;12.29;59.76;100583.88;5078373;27;45432;-40
2022/11/14 10:47:45;;;;;;;;;31.00;24.00;;;;;12.31;59.59;100582.88;5078550;27;46137;-40
2022/11/14 10:50:18;;;;;;;;;22.50;19.00;;;;;12.34;59.83;100582.78;5088913;27;45491;-40
2022/11/14 10:52:44;;;;;;;;;20.50;16.75;;;;;12.36;59.61;100577.50;5075616;27;45457;-40
2022/11/14 10:55:15;;;;;;;;;24.50;19.25;;;;;12.39;59.74;100581.75;5081744;28;51078;-40
2022/11/14 10:57:42;;;;;;;;;26.75;20.50;;;;;12.38;59.51;100577.41;5079745;27;47198;-37
2022/11/14 11:00:24;;;;;;;;;28.50;17.75;;;;;12.36;59.11;100574.88;5078360;27;45291;-38
2022/11/14 11:02:54;;;;;;;;;23.00;21.50;;;;;12.37;59.83;100578.34;5080906;27;45575;-38
2022/11/14 11:05:27;;;;;;;;;23.25;19.00;;;;;12.33;59.55;100578.44;5079672;27;45566;-38
2022/11/14 11:13:36;;;;;;;;;26.00;22.00;;;;;12.18;59.99;100571.13;5080072;28;46397;-39
2022/11/14 11:16:03;;;;;;;;;24.50;21.50;;;;;12.14;59.86;100561.66;5075106;27;46998;-38